sensor_id;sensor_type;location;lat;lon;timestamp;P1;durP1;ratioP1;P2;durP2;ratioP2
20935;SDS011;10627;54.514;18.532;2022-08-19T00:01:05;16.90;;;9.57;;
20935;SDS011;10627;54.514;18.532;2022-08-19T00:06:05;12.02;;;9.43;;
20935;SDS011;10627;54.514;18.532;2022-08-19T00:11:06;13.68;;;9.70;;
20935;SDS011;10627;54.514;18.532;2022-08-19T00:16:07;11.95;;;9.07;;
20935;SDS011;10627;54.514;18.532;2022-08-19T00:21:08;12.48;;;9.13;;
20935;SDS011;10627;54.514;18.532;2022-08-19T00:26:10;17.20;;;9.80;;
20935;SDS011;10627;54.514;18.532;2022-08-19T00:31:11;13.80;;;9.73;;
20935;SDS011;10627;54.514;18.532;2022-08-19T00:36:12;16.95;;;10.20;;
20935;SDS011;10627;54.514;18.532;2022-08-19T00:41:13;13.50;;;9.35;;
20935;SDS011;10627;54.514;18.532;2022-08-19T00:46:15;11.52;;;9.32;;
20935;SDS011;10627;54.514;18.532;2022-08-19T00:51:15;17.75;;;10.07;;
20935;SDS011;10627;54.514;18.532;2022-08-19T00:56:16;14.15;;;9.55;;
20935;SDS011;10627;54.514;18.532;2022-08-19T01:01:17;20.52;;;10.02;;
20935;SDS011;10627;54.514;18.532;2022-08-19T01:06:17;13.30;;;9.48;;
20935;SDS011;10627;54.514;18.532;2022-08-19T01:11:18;23.48;;;10.45;;
20935;SDS011;10627;54.514;18.532;2022-08-19T01:16:20;12.07;;;9.90;;
20935;SDS011;10627;54.514;18.532;2022-08-19T01:26:43;15.07;;;10.57;;
20935;SDS011;10627;54.514;18.532;2022-08-19T01:31:45;16.10;;;10.75;;
20935;SDS011;10627;54.514;18.532;2022-08-19T01:36:46;15.32;;;10.50;;
20935;SDS011;10627;54.514;18.532;2022-08-19T01:41:49;12.63;;;10.52;;
20935;SDS011;10627;54.514;18.532;2022-08-19T01:46:50;15.07;;;10.35;;
20935;SDS011;10627;54.514;18.532;2022-08-19T01:51:51;15.93;;;10.52;;
20935;SDS011;10627;54.514;18.532;2022-08-19T01:56:55;16.35;;;9.63;;
20935;SDS011;10627;54.514;18.532;2022-08-19T02:02:01;19.80;;;9.50;;
20935;SDS011;10627;54.514;18.532;2022-08-19T02:07:02;20.52;;;10.50;;
20935;SDS011;10627;54.514;18.532;2022-08-19T02:12:03;14.27;;;11.10;;
20935;SDS011;10627;54.514;18.532;2022-08-19T02:17:05;14.70;;;10.25;;
20935;SDS011;10627;54.514;18.532;2022-08-19T02:22:05;17.52;;;10.50;;
20935;SDS011;10627;54.514;18.532;2022-08-19T02:27:06;13.25;;;9.95;;
20935;SDS011;10627;54.514;18.532;2022-08-19T02:32:07;13.90;;;11.30;;
20935;SDS011;10627;54.514;18.532;2022-08-19T02:37:08;17.00;;;10.77;;
20935;SDS011;10627;54.514;18.532;2022-08-19T02:42:28;21.90;;;11.30;;
20935;SDS011;10627;54.514;18.532;2022-08-19T02:47:29;18.45;;;11.40;;
20935;SDS011;10627;54.514;18.532;2022-08-19T02:52:31;22.70;;;12.13;;
20935;SDS011;10627;54.514;18.532;2022-08-19T02:57:33;17.08;;;11.50;;
20935;SDS011;10627;54.514;18.532;2022-08-19T03:02:34;17.25;;;12.02;;
20935;SDS011;10627;54.514;18.532;2022-08-19T03:07:35;19.45;;;12.05;;
20935;SDS011;10627;54.514;18.532;2022-08-19T03:12:37;13.73;;;10.88;;
20935;SDS011;10627;54.514;18.532;2022-08-19T03:17:38;14.85;;;12.05;;
20935;SDS011;10627;54.514;18.532;2022-08-19T03:22:39;19.33;;;11.80;;
20935;SDS011;10627;54.514;18.532;2022-08-19T03:27:39;13.95;;;11.15;;
20935;SDS011;10627;54.514;18.532;2022-08-19T03:32:40;19.88;;;11.05;;
20935;SDS011;10627;54.514;18.532;2022-08-19T03:37:41;18.52;;;11.25;;
20935;SDS011;10627;54.514;18.532;2022-08-19T03:42:41;16.00;;;10.88;;
20935;SDS011;10627;54.514;18.532;2022-08-19T03:47:42;17.75;;;10.23;;
20935;SDS011;10627;54.514;18.532;2022-08-19T03:52:47;14.23;;;9.52;;
20935;SDS011;10627;54.514;18.532;2022-08-19T03:57:48;16.92;;;10.55;;
20935;SDS011;10627;54.514;18.532;2022-08-19T04:02:49;14.00;;;10.45;;
20935;SDS011;10627;54.514;18.532;2022-08-19T04:07:49;15.07;;;9.85;;
20935;SDS011;10627;54.514;18.532;2022-08-19T04:12:50;15.40;;;10.57;;
20935;SDS011;10627;54.514;18.532;2022-08-19T04:17:51;16.08;;;10.27;;
20935;SDS011;10627;54.514;18.532;2022-08-19T04:22:52;15.75;;;10.43;;
20935;SDS011;10627;54.514;18.532;2022-08-19T04:27:52;14.18;;;10.30;;
20935;SDS011;10627;54.514;18.532;2022-08-19T04:32:53;13.55;;;10.15;;
20935;SDS011;10627;54.514;18.532;2022-08-19T04:37:53;15.32;;;10.52;;
20935;SDS011;10627;54.514;18.532;2022-08-19T04:42:54;15.68;;;10.50;;
20935;SDS011;10627;54.514;18.532;2022-08-19T04:47:55;16.75;;;10.65;;
20935;SDS011;10627;54.514;18.532;2022-08-19T04:53:01;17.98;;;11.02;;
20935;SDS011;10627;54.514;18.532;2022-08-19T04:58:03;14.60;;;10.45;;
20935;SDS011;10627;54.514;18.532;2022-08-19T05:03:04;17.88;;;9.77;;
20935;SDS011;10627;54.514;18.532;2022-08-19T05:08:04;21.85;;;11.27;;
20935;SDS011;10627;54.514;18.532;2022-08-19T05:13:06;21.55;;;13.18;;
20935;SDS011;10627;54.514;18.532;2022-08-19T05:18:09;22.08;;;12.88;;
20935;SDS011;10627;54.514;18.532;2022-08-19T05:23:29;23.33;;;13.30;;
20935;SDS011;10627;54.514;18.532;2022-08-19T05:28:29;28.42;;;14.50;;
20935;SDS011;10627;54.514;18.532;2022-08-19T05:33:30;28.70;;;13.98;;
20935;SDS011;10627;54.514;18.532;2022-08-19T05:38:31;20.95;;;13.20;;
20935;SDS011;10627;54.514;18.532;2022-08-19T05:43:31;28.08;;;13.52;;
20935;SDS011;10627;54.514;18.532;2022-08-19T05:48:33;18.65;;;11.23;;
20935;SDS011;10627;54.514;18.532;2022-08-19T05:53:34;19.30;;;11.55;;
20935;SDS011;10627;54.514;18.532;2022-08-19T05:58:36;15.00;;;9.80;;
20935;SDS011;10627;54.514;18.532;2022-08-19T06:03:37;16.08;;;10.07;;
20935;SDS011;10627;54.514;18.532;2022-08-19T06:08:37;15.18;;;9.95;;
20935;SDS011;10627;54.514;18.532;2022-08-19T06:13:38;23.20;;;9.63;;
20935;SDS011;10627;54.514;18.532;2022-08-19T06:18:39;15.52;;;9.13;;
20935;SDS011;10627;54.514;18.532;2022-08-19T06:23:39;15.10;;;9.77;;
20935;SDS011;10627;54.514;18.532;2022-08-19T06:28:40;14.75;;;9.73;;
20935;SDS011;10627;54.514;18.532;2022-08-19T06:33:47;15.20;;;9.68;;
20935;SDS011;10627;54.514;18.532;2022-08-19T06:38:47;15.13;;;9.43;;
20935;SDS011;10627;54.514;18.532;2022-08-19T06:43:48;17.88;;;10.77;;
20935;SDS011;10627;54.514;18.532;2022-08-19T06:48:49;16.23;;;9.65;;
20935;SDS011;10627;54.514;18.532;2022-08-19T06:53:51;16.33;;;8.95;;
20935;SDS011;10627;54.514;18.532;2022-08-19T06:58:51;10.93;;;7.75;;
20935;SDS011;10627;54.514;18.532;2022-08-19T07:03:53;14.02;;;6.90;;
20935;SDS011;10627;54.514;18.532;2022-08-19T07:08:53;15.88;;;6.35;;
20935;SDS011;10627;54.514;18.532;2022-08-19T07:13:54;18.50;;;6.43;;
20935;SDS011;10627;54.514;18.532;2022-08-19T07:18:55;13.40;;;5.20;;
20935;SDS011;10627;54.514;18.532;2022-08-19T07:23:56;9.68;;;5.88;;
20935;SDS011;10627;54.514;18.532;2022-08-19T07:28:59;15.93;;;5.82;;
20935;SDS011;10627;54.514;18.532;2022-08-19T07:34:02;15.70;;;5.93;;
20935;SDS011;10627;54.514;18.532;2022-08-19T07:39:05;14.30;;;5.93;;
20935;SDS011;10627;54.514;18.532;2022-08-19T07:44:08;13.85;;;6.22;;
20935;SDS011;10627;54.514;18.532;2022-08-19T07:49:09;7.25;;;5.28;;
20935;SDS011;10627;54.514;18.532;2022-08-19T07:54:14;10.57;;;5.72;;
20935;SDS011;10627;54.514;18.532;2022-08-19T07:59:15;9.88;;;6.35;;
20935;SDS011;10627;54.514;18.532;2022-08-19T08:04:18;12.43;;;6.43;;
20935;SDS011;10627;54.514;18.532;2022-08-19T08:09:38;10.32;;;5.95;;
20935;SDS011;10627;54.514;18.532;2022-08-19T08:14:46;17.65;;;5.80;;
20935;SDS011;10627;54.514;18.532;2022-08-19T08:19:47;11.95;;;6.18;;
20935;SDS011;10627;54.514;18.532;2022-08-19T08:24:50;8.13;;;5.88;;
20935;SDS011;10627;54.514;18.532;2022-08-19T08:29:51;17.98;;;6.68;;
20935;SDS011;10627;54.514;18.532;2022-08-19T08:34:51;12.85;;;6.63;;
20935;SDS011;10627;54.514;18.532;2022-08-19T08:39:52;29.35;;;6.95;;
20935;SDS011;10627;54.514;18.532;2022-08-19T08:45:02;24.40;;;7.18;;
20935;SDS011;10627;54.514;18.532;2022-08-19T08:50:16;20.20;;;7.40;;
20935;SDS011;10627;54.514;18.532;2022-08-19T08:55:20;12.50;;;6.95;;
20935;SDS011;10627;54.514;18.532;2022-08-19T09:00:26;14.40;;;6.88;;
20935;SDS011;10627;54.514;18.532;2022-08-19T09:10:52;11.23;;;7.25;;
20935;SDS011;10627;54.514;18.532;2022-08-19T09:15:58;15.18;;;6.78;;
20935;SDS011;10627;54.514;18.532;2022-08-19T09:21:01;6.75;;;5.93;;
20935;SDS011;10627;54.514;18.532;2022-08-19T09:26:06;8.25;;;5.57;;
20935;SDS011;10627;54.514;18.532;2022-08-19T09:31:07;13.05;;;5.82;;
20935;SDS011;10627;54.514;18.532;2022-08-19T09:36:08;12.93;;;5.18;;
20935;SDS011;10627;54.514;18.532;2022-08-19T09:41:11;13.20;;;4.93;;
20935;SDS011;10627;54.514;18.532;2022-08-19T09:46:13;12.27;;;5.50;;
20935;SDS011;10627;54.514;18.532;2022-08-19T09:51:18;12.52;;;4.60;;
20935;SDS011;10627;54.514;18.532;2022-08-19T09:56:21;19.77;;;4.68;;
20935;SDS011;10627;54.514;18.532;2022-08-19T10:01:23;9.73;;;4.00;;
20935;SDS011;10627;54.514;18.532;2022-08-19T10:06:25;5.38;;;4.00;;
20935;SDS011;10627;54.514;18.532;2022-08-19T10:11:26;10.60;;;3.83;;
20935;SDS011;10627;54.514;18.532;2022-08-19T10:16:26;6.80;;;3.75;;
20935;SDS011;10627;54.514;18.532;2022-08-19T10:21:28;10.98;;;3.97;;
20935;SDS011;10627;54.514;18.532;2022-08-19T10:26:32;12.38;;;4.47;;
20935;SDS011;10627;54.514;18.532;2022-08-19T10:31:34;11.52;;;4.70;;
20935;SDS011;10627;54.514;18.532;2022-08-19T10:36:35;9.35;;;5.22;;
20935;SDS011;10627;54.514;18.532;2022-08-19T10:41:37;9.48;;;5.75;;
20935;SDS011;10627;54.514;18.532;2022-08-19T10:46:39;10.40;;;5.80;;
20935;SDS011;10627;54.514;18.532;2022-08-19T10:51:41;10.77;;;7.05;;
20935;SDS011;10627;54.514;18.532;2022-08-19T10:57:00;15.60;;;6.78;;
20935;SDS011;10627;54.514;18.532;2022-08-19T11:02:02;11.55;;;6.05;;
20935;SDS011;10627;54.514;18.532;2022-08-19T11:07:04;12.40;;;5.00;;
20935;SDS011;10627;54.514;18.532;2022-08-19T11:12:05;9.48;;;4.43;;
20935;SDS011;10627;54.514;18.532;2022-08-19T11:17:06;8.20;;;4.50;;
20935;SDS011;10627;54.514;18.532;2022-08-19T11:22:07;13.20;;;4.85;;
20935;SDS011;10627;54.514;18.532;2022-08-19T11:27:09;13.30;;;5.38;;
20935;SDS011;10627;54.514;18.532;2022-08-19T11:32:10;8.77;;;4.20;;
20935;SDS011;10627;54.514;18.532;2022-08-19T11:37:13;6.43;;;4.28;;
20935;SDS011;10627;54.514;18.532;2022-08-19T11:42:13;6.28;;;4.28;;
20935;SDS011;10627;54.514;18.532;2022-08-19T11:47:32;7.28;;;4.35;;
20935;SDS011;10627;54.514;18.532;2022-08-19T11:52:34;13.25;;;6.43;;
20935;SDS011;10627;54.514;18.532;2022-08-19T11:57:35;24.75;;;6.20;;
20935;SDS011;10627;54.514;18.532;2022-08-19T12:02:36;8.82;;;5.70;;
20935;SDS011;10627;54.514;18.532;2022-08-19T12:07:36;17.63;;;6.47;;
20935;SDS011;10627;54.514;18.532;2022-08-19T12:12:37;13.18;;;7.13;;
20935;SDS011;10627;54.514;18.532;2022-08-19T12:17:42;13.13;;;6.32;;
20935;SDS011;10627;54.514;18.532;2022-08-19T12:22:43;11.77;;;6.30;;
20935;SDS011;10627;54.514;18.532;2022-08-19T12:27:43;11.27;;;6.07;;
20935;SDS011;10627;54.514;18.532;2022-08-19T12:32:45;10.90;;;6.38;;
20935;SDS011;10627;54.514;18.532;2022-08-19T12:37:46;14.05;;;6.55;;
20935;SDS011;10627;54.514;18.532;2022-08-19T12:42:47;14.23;;;6.47;;
20935;SDS011;10627;54.514;18.532;2022-08-19T12:47:51;9.35;;;5.90;;
20935;SDS011;10627;54.514;18.532;2022-08-19T12:52:53;8.43;;;5.97;;
20935;SDS011;10627;54.514;18.532;2022-08-19T12:57:53;12.63;;;5.95;;
20935;SDS011;10627;54.514;18.532;2022-08-19T13:02:54;18.80;;;6.50;;
20935;SDS011;10627;54.514;18.532;2022-08-19T13:07:55;12.25;;;6.32;;
20935;SDS011;10627;54.514;18.532;2022-08-19T13:13:00;17.75;;;7.20;;
20935;SDS011;10627;54.514;18.532;2022-08-19T13:18:01;10.27;;;6.35;;
20935;SDS011;10627;54.514;18.532;2022-08-19T13:23:02;11.63;;;6.53;;
20935;SDS011;10627;54.514;18.532;2022-08-19T13:28:04;14.43;;;6.95;;
20935;SDS011;10627;54.514;18.532;2022-08-19T13:33:07;10.68;;;6.82;;
20935;SDS011;10627;54.514;18.532;2022-08-19T13:38:12;10.77;;;6.20;;
20935;SDS011;10627;54.514;18.532;2022-08-19T13:43:13;17.35;;;6.43;;
20935;SDS011;10627;54.514;18.532;2022-08-19T13:48:15;9.95;;;6.43;;
20935;SDS011;10627;54.514;18.532;2022-08-19T13:53:16;11.93;;;6.30;;
20935;SDS011;10627;54.514;18.532;2022-08-19T13:58:17;16.90;;;6.40;;
20935;SDS011;10627;54.514;18.532;2022-08-19T14:03:18;15.57;;;6.70;;
20935;SDS011;10627;54.514;18.532;2022-08-19T14:08:19;17.83;;;6.78;;
20935;SDS011;10627;54.514;18.532;2022-08-19T14:13:21;7.90;;;5.78;;
20935;SDS011;10627;54.514;18.532;2022-08-19T14:18:22;14.60;;;6.15;;
20935;SDS011;10627;54.514;18.532;2022-08-19T14:23:24;12.85;;;6.70;;
20935;SDS011;10627;54.514;18.532;2022-08-19T14:28:25;12.07;;;7.05;;
20935;SDS011;10627;54.514;18.532;2022-08-19T14:33:26;11.60;;;6.70;;
20935;SDS011;10627;54.514;18.532;2022-08-19T14:38:27;15.13;;;5.85;;
20935;SDS011;10627;54.514;18.532;2022-08-19T14:43:31;10.20;;;6.38;;
20935;SDS011;10627;54.514;18.532;2022-08-19T14:48:32;9.60;;;5.88;;
20935;SDS011;10627;54.514;18.532;2022-08-19T14:53:33;14.75;;;6.57;;
20935;SDS011;10627;54.514;18.532;2022-08-19T14:58:34;12.07;;;6.88;;
20935;SDS011;10627;54.514;18.532;2022-08-19T15:03:35;12.40;;;6.57;;
20935;SDS011;10627;54.514;18.532;2022-08-19T15:08:37;11.48;;;6.07;;
20935;SDS011;10627;54.514;18.532;2022-08-19T15:13:39;11.85;;;5.85;;
20935;SDS011;10627;54.514;18.532;2022-08-19T15:18:40;9.98;;;6.50;;
20935;SDS011;10627;54.514;18.532;2022-08-19T15:23:47;15.80;;;5.72;;
20935;SDS011;10627;54.514;18.532;2022-08-19T15:28:49;11.38;;;5.72;;
20935;SDS011;10627;54.514;18.532;2022-08-19T15:33:50;9.15;;;5.88;;
20935;SDS011;10627;54.514;18.532;2022-08-19T15:38:51;7.80;;;5.20;;
20935;SDS011;10627;54.514;18.532;2022-08-19T15:43:53;14.88;;;5.35;;
20935;SDS011;10627;54.514;18.532;2022-08-19T15:49:04;14.98;;;6.10;;
20935;SDS011;10627;54.514;18.532;2022-08-19T15:54:06;15.73;;;6.03;;
20935;SDS011;10627;54.514;18.532;2022-08-19T15:59:07;12.35;;;5.93;;
20935;SDS011;10627;54.514;18.532;2022-08-19T16:04:26;13.48;;;6.55;;
20935;SDS011;10627;54.514;18.532;2022-08-19T16:09:45;13.45;;;6.03;;
20935;SDS011;10627;54.514;18.532;2022-08-19T16:14:46;11.10;;;6.32;;
20935;SDS011;10627;54.514;18.532;2022-08-19T16:19:48;12.45;;;6.20;;
20935;SDS011;10627;54.514;18.532;2022-08-19T16:24:49;23.17;;;6.15;;
20935;SDS011;10627;54.514;18.532;2022-08-19T16:29:49;14.95;;;5.60;;
20935;SDS011;10627;54.514;18.532;2022-08-19T16:34:51;11.95;;;6.55;;
20935;SDS011;10627;54.514;18.532;2022-08-19T16:39:51;11.32;;;6.18;;
20935;SDS011;10627;54.514;18.532;2022-08-19T16:44:53;8.70;;;5.90;;
20935;SDS011;10627;54.514;18.532;2022-08-19T16:49:53;9.25;;;6.15;;
20935;SDS011;10627;54.514;18.532;2022-08-19T16:54:54;11.63;;;6.13;;
20935;SDS011;10627;54.514;18.532;2022-08-19T16:59:54;18.50;;;6.97;;
20935;SDS011;10627;54.514;18.532;2022-08-19T17:04:55;14.45;;;7.03;;
20935;SDS011;10627;54.514;18.532;2022-08-19T17:09:56;12.68;;;6.88;;
20935;SDS011;10627;54.514;18.532;2022-08-19T17:14:56;16.40;;;6.55;;
20935;SDS011;10627;54.514;18.532;2022-08-19T17:19:58;15.30;;;7.55;;
20935;SDS011;10627;54.514;18.532;2022-08-19T17:24:59;11.55;;;6.45;;
20935;SDS011;10627;54.514;18.532;2022-08-19T17:30:03;23.08;;;6.90;;
20935;SDS011;10627;54.514;18.532;2022-08-19T17:35:06;15.77;;;7.20;;
20935;SDS011;10627;54.514;18.532;2022-08-19T17:40:07;14.30;;;7.47;;
20935;SDS011;10627;54.514;18.532;2022-08-19T17:45:08;19.17;;;7.55;;
20935;SDS011;10627;54.514;18.532;2022-08-19T17:50:10;19.10;;;7.80;;
20935;SDS011;10627;54.514;18.532;2022-08-19T17:55:12;27.58;;;8.45;;
20935;SDS011;10627;54.514;18.532;2022-08-19T18:00:13;13.43;;;8.00;;
20935;SDS011;10627;54.514;18.532;2022-08-19T18:05:15;11.93;;;7.40;;
20935;SDS011;10627;54.514;18.532;2022-08-19T18:10:21;16.70;;;7.60;;
20935;SDS011;10627;54.514;18.532;2022-08-19T18:15:22;10.30;;;7.20;;
20935;SDS011;10627;54.514;18.532;2022-08-19T18:20:24;11.70;;;7.50;;
20935;SDS011;10627;54.514;18.532;2022-08-19T18:25:26;16.30;;;7.72;;
20935;SDS011;10627;54.514;18.532;2022-08-19T18:30:28;15.50;;;8.10;;
20935;SDS011;10627;54.514;18.532;2022-08-19T18:35:33;16.95;;;8.27;;
20935;SDS011;10627;54.514;18.532;2022-08-19T18:40:37;17.23;;;7.78;;
20935;SDS011;10627;54.514;18.532;2022-08-19T18:45:56;16.02;;;7.53;;
20935;SDS011;10627;54.514;18.532;2022-08-19T18:51:16;24.23;;;7.97;;
20935;SDS011;10627;54.514;18.532;2022-08-19T18:56:17;16.23;;;8.18;;
20935;SDS011;10627;54.514;18.532;2022-08-19T19:01:19;17.60;;;8.57;;
20935;SDS011;10627;54.514;18.532;2022-08-19T19:06:24;15.52;;;7.57;;
20935;SDS011;10627;54.514;18.532;2022-08-19T19:11:26;14.43;;;8.13;;
20935;SDS011;10627;54.514;18.532;2022-08-19T19:16:38;22.67;;;7.72;;
20935;SDS011;10627;54.514;18.532;2022-08-19T19:21:42;14.13;;;8.13;;
20935;SDS011;10627;54.514;18.532;2022-08-19T19:26:49;18.73;;;8.50;;
20935;SDS011;10627;54.514;18.532;2022-08-19T19:31:51;16.15;;;8.60;;
20935;SDS011;10627;54.514;18.532;2022-08-19T19:36:52;23.70;;;8.80;;
20935;SDS011;10627;54.514;18.532;2022-08-19T19:41:52;15.75;;;8.20;;
20935;SDS011;10627;54.514;18.532;2022-08-19T19:46:53;14.65;;;7.45;;
20935;SDS011;10627;54.514;18.532;2022-08-19T19:51:57;10.07;;;7.43;;
20935;SDS011;10627;54.514;18.532;2022-08-19T19:56:58;14.02;;;7.53;;
20935;SDS011;10627;54.514;18.532;2022-08-19T20:01:59;9.95;;;7.38;;
20935;SDS011;10627;54.514;18.532;2022-08-19T20:07:00;13.52;;;7.72;;
20935;SDS011;10627;54.514;18.532;2022-08-19T20:12:01;14.75;;;7.93;;
20935;SDS011;10627;54.514;18.532;2022-08-19T20:17:02;28.67;;;8.88;;
20935;SDS011;10627;54.514;18.532;2022-08-19T20:22:04;11.10;;;7.25;;
20935;SDS011;10627;54.514;18.532;2022-08-19T20:27:05;12.00;;;7.80;;
20935;SDS011;10627;54.514;18.532;2022-08-19T20:32:06;11.38;;;7.88;;
20935;SDS011;10627;54.514;18.532;2022-08-19T20:37:07;14.00;;;7.65;;
20935;SDS011;10627;54.514;18.532;2022-08-19T20:42:10;14.93;;;8.32;;
20935;SDS011;10627;54.514;18.532;2022-08-19T20:47:11;14.70;;;8.25;;
20935;SDS011;10627;54.514;18.532;2022-08-19T20:52:12;13.77;;;7.80;;
20935;SDS011;10627;54.514;18.532;2022-08-19T20:57:13;21.88;;;8.98;;
20935;SDS011;10627;54.514;18.532;2022-08-19T21:02:13;12.75;;;8.25;;
20935;SDS011;10627;54.514;18.532;2022-08-19T21:07:14;18.75;;;8.25;;
20935;SDS011;10627;54.514;18.532;2022-08-19T21:12:15;17.85;;;8.70;;
20935;SDS011;10627;54.514;18.532;2022-08-19T21:17:17;17.45;;;7.90;;
20935;SDS011;10627;54.514;18.532;2022-08-19T21:22:17;17.10;;;8.68;;
20935;SDS011;10627;54.514;18.532;2022-08-19T21:27:18;21.80;;;8.60;;
20935;SDS011;10627;54.514;18.532;2022-08-19T21:32:19;19.73;;;9.75;;
20935;SDS011;10627;54.514;18.532;2022-08-19T21:37:19;22.08;;;11.95;;
20935;SDS011;10627;54.514;18.532;2022-08-19T21:42:22;34.13;;;13.32;;
20935;SDS011;10627;54.514;18.532;2022-08-19T21:47:23;19.85;;;12.02;;
20935;SDS011;10627;54.514;18.532;2022-08-19T21:52:24;24.20;;;12.27;;
20935;SDS011;10627;54.514;18.532;2022-08-19T21:57:25;27.92;;;10.52;;
20935;SDS011;10627;54.514;18.532;2022-08-19T22:02:25;15.13;;;11.13;;
20935;SDS011;10627;54.514;18.532;2022-08-19T22:07:27;20.05;;;11.20;;
20935;SDS011;10627;54.514;18.532;2022-08-19T22:12:29;19.83;;;11.70;;
20935;SDS011;10627;54.514;18.532;2022-08-19T22:17:30;21.17;;;11.43;;
20935;SDS011;10627;54.514;18.532;2022-08-19T22:22:32;20.20;;;11.18;;
20935;SDS011;10627;54.514;18.532;2022-08-19T22:27:32;18.30;;;12.13;;
20935;SDS011;10627;54.514;18.532;2022-08-19T22:32:33;18.75;;;10.23;;
20935;SDS011;10627;54.514;18.532;2022-08-19T22:37:33;17.17;;;10.38;;
20935;SDS011;10627;54.514;18.532;2022-08-19T22:42:34;21.48;;;11.18;;
20935;SDS011;10627;54.514;18.532;2022-08-19T22:47:35;19.92;;;11.93;;
20935;SDS011;10627;54.514;18.532;2022-08-19T22:52:35;14.48;;;11.65;;
20935;SDS011;10627;54.514;18.532;2022-08-19T22:57:36;21.02;;;13.43;;
20935;SDS011;10627;54.514;18.532;2022-08-19T23:02:37;18.42;;;12.57;;
20935;SDS011;10627;54.514;18.532;2022-08-19T23:07:37;18.42;;;12.55;;
20935;SDS011;10627;54.514;18.532;2022-08-19T23:12:39;18.63;;;12.38;;
20935;SDS011;10627;54.514;18.532;2022-08-19T23:17:40;22.58;;;12.73;;
20935;SDS011;10627;54.514;18.532;2022-08-19T23:22:41;19.13;;;11.95;;
20935;SDS011;10627;54.514;18.532;2022-08-19T23:27:42;19.92;;;11.98;;
20935;SDS011;10627;54.514;18.532;2022-08-19T23:33:05;13.70;;;11.13;;
20935;SDS011;10627;54.514;18.532;2022-08-19T23:38:07;18.02;;;12.07;;
20935;SDS011;10627;54.514;18.532;2022-08-19T23:43:10;16.95;;;12.18;;
20935;SDS011;10627;54.514;18.532;2022-08-19T23:48:10;17.55;;;10.18;;
20935;SDS011;10627;54.514;18.532;2022-08-19T23:53:11;14.50;;;11.25;;
20935;SDS011;10627;54.514;18.532;2022-08-19T23:58:12;19.08;;;11.63;;
